createdAt,value
2019-04-23T00:02:35.393Z,89.40
2019-04-23T00:07:51.246Z,90.00
2019-04-23T00:17:55.768Z,89.40
2019-04-23T00:43:34.167Z,90.60
2019-04-23T00:53:43.995Z,90.80
2019-04-23T00:58:54.940Z,91.10
2019-04-23T01:04:02.856Z,91.50
2019-04-23T01:09:25.096Z,91.90
2019-04-23T01:14:18.030Z,91.10
2019-04-23T01:19:37.259Z,91.40
2019-04-23T01:24:41.881Z,91.90
2019-04-23T01:35:25.322Z,91.60
2019-04-23T01:40:26.546Z,92.00
2019-04-23T01:45:27.336Z,92.10
2019-04-23T01:50:47.317Z,91.90
2019-04-23T01:55:46.843Z,92.70
2019-04-23T02:11:19.087Z,92.50
2019-04-23T02:16:21.428Z,92.40
2019-04-23T02:21:26.057Z,92.60
2019-04-23T02:31:52.717Z,93.30
2019-04-23T02:42:07.274Z,93.00
2019-04-23T02:47:12.592Z,93.30
2019-04-23T02:52:24.924Z,93.90
2019-04-23T03:07:32.972Z,92.30
2019-04-23T03:18:16.482Z,92.90
2019-04-23T03:28:29.355Z,92.40
2019-04-23T03:38:47.379Z,92.30
2019-04-23T03:43:39.038Z,93.10
2019-04-23T03:48:47.707Z,93.80
2019-04-23T04:14:32.062Z,94.90
2019-04-23T04:24:40.114Z,95.00
2019-04-23T04:35:11.306Z,96.10
2019-04-23T04:39:53.172Z,96.00
2019-04-23T04:45:04.921Z,96.10
2019-04-23T04:55:16.220Z,95.10
2019-04-23T05:15:36.990Z,93.90
2019-04-23T05:20:50.591Z,94.00
2019-04-23T05:25:44.961Z,94.10
2019-04-23T05:31:02.311Z,93.60
2019-04-23T05:36:12.766Z,94.00
2019-04-23T05:41:10.055Z,93.20
2019-04-23T05:46:29.200Z,93.20
2019-04-23T05:51:31.138Z,93.00
2019-04-23T05:56:27.423Z,92.80
2019-04-23T06:12:21.518Z,92.50
2019-04-23T06:16:59.024Z,93.10
2019-04-23T06:32:19.884Z,91.40
2019-04-23T06:37:16.040Z,91.00
2019-04-23T06:42:22.864Z,90.30
2019-04-23T06:47:28.918Z,90.30
2019-04-23T06:52:33.698Z,90.10
2019-04-23T06:57:47.849Z,88.80
2019-04-23T07:02:53.788Z,87.90
2019-04-23T07:13:13.443Z,87.70
2019-04-23T07:18:16.300Z,85.40
2019-04-23T07:23:35.699Z,84.50
2019-04-23T07:28:36.783Z,84.30
2019-04-23T07:33:39.696Z,84.60
2019-04-23T07:39:15.578Z,84.80
2019-04-23T07:44:43.353Z,85.20
2019-04-23T07:49:50.650Z,83.20
2019-04-23T07:55:02.398Z,82.90
2019-04-23T08:00:03.929Z,84.70
2019-04-23T08:05:25.178Z,83.10
2019-04-23T08:10:16.734Z,82.00
2019-04-23T08:15:23.036Z,81.80
2019-04-23T08:20:31.579Z,80.60
2019-04-23T08:25:57.656Z,81.70
2019-04-23T08:31:00.792Z,79.30
2019-04-23T08:41:22.906Z,79.80
2019-04-23T08:46:50.963Z,79.00
2019-04-23T08:56:57.087Z,78.40
2019-04-23T09:02:20.290Z,79.00
2019-04-23T09:07:13.418Z,78.70
2019-04-23T09:12:16.745Z,76.20
2019-04-23T09:17:21.184Z,75.90
2019-04-23T09:22:31.047Z,76.80
2019-04-23T09:27:38.001Z,74.90
2019-04-23T09:32:51.598Z,75.20
2019-04-23T09:38:28.043Z,75.10
2019-04-23T09:44:03.031Z,75.80
2019-04-23T09:59:41.215Z,78.50
2019-04-23T10:04:17.127Z,80.50
2019-04-23T10:09:10.599Z,80.10
2019-04-23T10:14:16.699Z,80.50
2019-04-23T10:19:26.634Z,81.10
2019-04-23T10:24:32.829Z,80.40
2019-04-23T10:29:39.205Z,81.30
2019-04-23T10:34:55.264Z,80.20
2019-04-23T10:39:54.851Z,78.70
2019-04-23T10:45:14.494Z,79.00
2019-04-23T10:50:46.499Z,78.70
2019-04-23T10:55:58.860Z,78.20
2019-04-23T11:00:59.276Z,78.90
2019-04-23T11:06:06.715Z,77.90
2019-04-23T11:11:18.722Z,76.30
2019-04-23T11:21:28.578Z,76.50
2019-04-23T11:26:34.463Z,75.40
2019-04-23T11:31:52.330Z,75.10
2019-04-23T11:47:41.689Z,72.70
2019-04-23T11:52:10.672Z,72.20
2019-04-23T12:02:43.228Z,73.10
2019-04-23T12:08:07.924Z,73.40
2019-04-23T12:13:21.352Z,75.90
2019-04-23T12:18:19.929Z,74.80
2019-04-23T12:23:35.033Z,74.20
2019-04-23T12:28:30.571Z,72.00
2019-04-23T12:33:45.392Z,71.30
2019-04-23T12:38:39.947Z,73.10
2019-04-23T12:43:50.039Z,72.40
2019-04-23T12:54:16.237Z,72.10
2019-04-23T12:59:04.602Z,73.70
2019-04-23T13:04:20.601Z,73.40
2019-04-23T13:09:34.680Z,76.00
2019-04-23T13:14:39.545Z,74.60
2019-04-23T13:19:49.840Z,73.20
2019-04-23T13:24:56.032Z,73.40
2019-04-23T13:29:56.622Z,75.80
2019-04-23T13:40:09.617Z,74.90
2019-04-23T13:45:33.785Z,74.90
2019-04-23T13:50:37.390Z,77.90
2019-04-23T13:55:24.477Z,75.50
2019-04-23T14:06:09.388Z,76.20
2019-04-23T14:11:13.386Z,75.20
2019-04-23T14:16:23.415Z,75.70
2019-04-23T14:31:30.416Z,75.80
2019-04-23T14:36:42.843Z,76.00
2019-04-23T14:41:52.520Z,77.30
2019-04-23T14:51:58.909Z,77.30
2019-04-23T14:57:07.901Z,78.60
2019-04-23T15:02:13.701Z,81.50
2019-04-23T15:07:24.204Z,80.70
2019-04-23T15:12:30.662Z,79.80
2019-04-23T15:17:27.015Z,80.50
2019-04-23T15:22:41.519Z,82.40
2019-04-23T15:28:06.044Z,81.90
2019-04-23T15:38:18.858Z,78.40
2019-04-23T15:43:04.279Z,78.10
2019-04-23T15:48:11.606Z,81.00
2019-04-23T15:53:07.413Z,84.20
2019-04-23T15:58:46.784Z,84.60
2019-04-23T16:02:58.881Z,80.50
2019-04-23T16:08:39.022Z,82.40
2019-04-23T16:13:55.784Z,82.00
2019-04-23T16:24:03.083Z,86.50
2019-04-23T16:34:28.642Z,86.30
2019-04-23T16:39:22.043Z,86.30
2019-04-23T16:44:40.428Z,87.00
2019-04-23T16:49:57.481Z,87.30
2019-04-23T16:54:50.599Z,88.70
2019-04-23T17:00:07.396Z,88.90
2019-04-23T17:05:04.758Z,88.60
2019-04-23T17:10:08.258Z,88.70
2019-04-23T17:15:07.527Z,90.20
2019-04-23T17:30:45.832Z,90.80
2019-04-23T17:41:32.821Z,91.60
2019-04-23T17:46:36.778Z,92.10
2019-04-23T17:51:42.602Z,91.80
2019-04-23T17:56:58.099Z,92.00
2019-04-23T18:02:18.264Z,92.20
2019-04-23T18:07:19.297Z,92.50
2019-04-23T18:12:19.792Z,93.20
2019-04-23T18:17:13.033Z,93.10
2019-04-23T18:22:22.260Z,92.80
2019-04-23T18:27:23.605Z,93.30
2019-04-23T18:38:05.433Z,92.90
2019-04-23T18:43:11.959Z,92.50
2019-04-23T19:09:16.354Z,91.00
2019-04-23T19:14:32.178Z,90.90
2019-04-23T19:19:33.723Z,90.90
2019-04-23T19:24:37.801Z,90.80
2019-04-23T19:34:52.940Z,91.00
2019-04-23T19:40:04.467Z,91.10
2019-04-23T19:45:10.922Z,91.20
2019-04-23T19:50:29.869Z,91.20
2019-04-23T19:55:24.108Z,91.20
2019-04-23T20:00:47.937Z,91.40
2019-04-23T20:05:41.392Z,91.60
2019-04-23T20:10:39.209Z,91.90
2019-04-23T20:16:02.811Z,92.20
2019-04-23T20:20:55.079Z,93.30
2019-04-23T20:32:57.919Z,95.20
2019-04-23T20:36:46.130Z,94.80
2019-04-23T20:47:06.249Z,95.70
2019-04-23T21:03:30.970Z,96.80
2019-04-23T21:08:14.667Z,97.20
2019-04-23T21:13:43.370Z,96.90
2019-04-23T21:23:50.767Z,97.10
2019-04-23T21:39:40.685Z,98.30
2019-04-23T21:44:38.603Z,98.40
2019-04-23T21:50:04.546Z,98.80
2019-04-23T21:59:59.325Z,99.20
2019-04-23T22:05:09.430Z,98.70
2019-04-23T22:10:09.199Z,98.20
2019-04-23T22:15:19.963Z,99.70
2019-04-23T22:20:34.798Z,99.80
2019-04-23T22:25:47.005Z,99.90
2019-04-23T22:30:49.572Z,99.90
2019-04-23T22:40:56.393Z,99.90
2019-04-23T22:46:05.403Z,99.90
2019-04-23T22:56:17.715Z,99.90
2019-04-23T23:06:36.873Z,99.90
2019-04-23T23:11:35.761Z,99.90
2019-04-23T23:16:45.249Z,99.90
2019-04-23T23:21:58.274Z,99.90
2019-04-23T23:32:03.892Z,99.90
2019-04-23T23:42:16.468Z,99.90
2019-04-23T23:47:18.324Z,99.90
2019-04-23T23:52:32.910Z,99.90
2019-04-23T23:57:30.426Z,99.90
